Darstellungsparameter: Aktuell verwendete Einstellungen:
Skalierung der Graphiken ... ?
xyx+y,   Skalierungsfaktor:      Skalierung: Modus: x, Faktor: 1
Darstellungszeitraum ... ?
Vom - - bis: - -   Zeitraum: 06.09.2019 - 07.09.2019
Min/Max/Avg-Anzeige ... ?
Zeige MMA aktuell
Zeige MMA Monat
Zeige MMA alles
Zeige --A aktuell
Zeige --A Monat
Zeige --A alles
Keine MMA-Anzeige
MMA:
Keine MMA-Graphiken
MMA-Basis: 06.09.2019 - 07.09.2019
Quicknavigation für Darstellung... ?
Tage:      1T, 2T, 3T, 5T -1T -2T -3T -5T +1T +2T +3T +5T
Wochen: 1W, 2W, 3W -1W -2W -3W +1W +2W +3W
Monate: 1M, 3M, 6M -1M -3M -6M +1M +3M +6M
Jahre:    1J, 3J, 5J, 10J -1J -3J -5J -10J +1J +3J +5J +10J
Nutze für die Darstellung ... ?
Originaldaten oder Mittelwerte auf ...
Stundenbasis Tagesbasis Wochenbasis
Monatsbasis Jahresbasis      Datenbasis: Original-Daten
Darstellen als:
Statistik (Auto) Statistik J:M      Darstellung:
Zur Graphik,    zurück zur Übersicht aller Sensoren.
 
Tabellarische Datenbersicht: ?
 
Sensor: Nr:Datum:Temp:Feuchte:Taupunkt:
Aussen-T/F 1 06-09-2019 00:00:00 12.9 C 77 % 8.97 C
2 06-09-2019 00:05:00 12.7 C 77 % 8.78 C
3 06-09-2019 00:10:00 12.5 C 78 % 8.77 C
4 06-09-2019 00:15:00 12.3 C 79 % 8.77 C
5 06-09-2019 00:20:00 12.2 C 79 % 8.67 C
6 06-09-2019 00:25:00 12 C 80 % 8.66 C
7 06-09-2019 00:30:00 11.9 C 80 % 8.56 C
8 06-09-2019 00:35:00 11.8 C 81 % 8.65 C
9 06-09-2019 00:40:00 11.7 C 81 % 8.55 C
10 06-09-2019 00:45:00 11.6 C 82 % 8.64 C
11 06-09-2019 00:50:00 11.4 C 82 % 8.44 C
12 06-09-2019 00:55:00 11.3 C 82 % 8.34 C
13 06-09-2019 01:00:00 11.4 C 83 % 8.62 C
14 06-09-2019 01:05:00 11.6 C 82 % 8.64 C
15 06-09-2019 01:10:00 11.7 C 82 % 8.73 C
16 06-09-2019 01:15:00 11.6 C 82 % 8.64 C
17 06-09-2019 01:20:00 11.5 C 82 % 8.54 C
18 06-09-2019 01:25:00 11.4 C 82 % 8.44 C
19 06-09-2019 01:30:00 11.3 C 82 % 8.34 C
20 06-09-2019 01:35:00 11.1 C 83 % 8.33 C
21 06-09-2019 01:40:00 11 C 83 % 8.23 C
22 06-09-2019 01:45:00 10.8 C 84 % 8.21 C
23 06-09-2019 01:50:00 10.7 C 84 % 8.11 C
24 06-09-2019 01:55:00 10.7 C 85 % 8.28 C
25 06-09-2019 02:00:00 10.6 C 85 % 8.19 C
Sensor: Nr:Datum:Temp:Feuchte:Taupunkt:
Aussen-T/F 26 06-09-2019 02:05:00 10.6 C 86 % 8.36 C
27 06-09-2019 02:10:00 10.5 C 86 % 8.26 C
28 06-09-2019 02:15:00 10.4 C 86 % 8.16 C
29 06-09-2019 02:20:00 10.4 C 86 % 8.16 C
30 06-09-2019 02:25:00 10.4 C 87 % 8.33 C
31 06-09-2019 02:30:00 10.4 C 87 % 8.33 C
32 06-09-2019 02:35:00 10.4 C 87 % 8.33 C
33 06-09-2019 02:40:00 10.4 C 87 % 8.33 C
34 06-09-2019 02:45:00 10.3 C 87 % 8.23 C
35 06-09-2019 02:50:00 10.3 C 87 % 8.23 C
36 06-09-2019 02:55:00 10.2 C 87 % 8.14 C
37 06-09-2019 03:00:00 10.2 C 87 % 8.14 C
38 06-09-2019 03:05:00 10.1 C 87 % 8.04 C
39 06-09-2019 03:10:00 10.1 C 88 % 8.21 C
40 06-09-2019 03:15:00 10 C 88 % 8.11 C
41 06-09-2019 03:20:00 9.9 C 88 % 8.01 C
42 06-09-2019 03:25:00 9.9 C 88 % 8.01 C
43 06-09-2019 03:30:00 9.8 C 88 % 7.91 C
44 06-09-2019 03:35:00 9.8 C 88 % 7.91 C
45 06-09-2019 03:40:00 9.7 C 88 % 7.81 C
46 06-09-2019 03:45:00 9.7 C 89 % 7.98 C
47 06-09-2019 03:50:00 9.7 C 89 % 7.98 C
48 06-09-2019 03:55:00 9.6 C 89 % 7.88 C
49 06-09-2019 04:00:00 9.6 C 89 % 7.88 C
50 06-09-2019 04:05:00 9.4 C 88 % 7.52 C
Sensor: Nr:Datum:Temp:Feuchte:Taupunkt:
Aussen-T/F 51 06-09-2019 04:10:00 9.2 C 88 % 7.32 C
52 06-09-2019 04:15:00 9.2 C 89 % 7.48 C
53 06-09-2019 04:20:00 9.1 C 89 % 7.39 C
54 06-09-2019 04:25:00 9.1 C 90 % 7.55 C
55 06-09-2019 04:30:00 9 C 90 % 7.45 C
56 06-09-2019 04:35:00 8.9 C 90 % 7.35 C
57 06-09-2019 04:40:00 8.8 C 90 % 7.25 C
58 06-09-2019 04:45:00 8.7 C 90 % 7.15 C
59 06-09-2019 04:50:00 8.6 C 90 % 7.06 C
60 06-09-2019 04:55:00 8.5 C 90 % 6.96 C
61 06-09-2019 05:00:00 8.4 C 91 % 7.02 C
62 06-09-2019 05:05:00 8.4 C 91 % 7.02 C
63 06-09-2019 05:10:00 8.3 C 91 % 6.92 C
64 06-09-2019 05:15:00 8.3 C 91 % 6.92 C
65 06-09-2019 05:20:00 8.2 C 91 % 6.82 C
66 06-09-2019 05:25:00 8.1 C 91 % 6.72 C
67 06-09-2019 05:30:00 8 C 92 % 6.78 C
68 06-09-2019 05:35:00 7.9 C 92 % 6.68 C
69 06-09-2019 05:40:00 7.9 C 92 % 6.68 C
70 06-09-2019 05:45:00 7.8 C 92 % 6.58 C
71 06-09-2019 05:50:00 7.8 C 92 % 6.58 C
72 06-09-2019 05:55:00 7.8 C 92 % 6.58 C
73 06-09-2019 06:00:00 7.7 C 92 % 6.48 C
74 06-09-2019 06:05:00 7.7 C 92 % 6.48 C
75 06-09-2019 06:10:00 7.7 C 92 % 6.48 C
Sensor: Nr:Datum:Temp:Feuchte:Taupunkt:
Aussen-T/F 76 06-09-2019 06:15:00 7.7 C 93 % 6.64 C
77 06-09-2019 06:20:00 7.6 C 93 % 6.54 C
78 06-09-2019 06:25:00 7.6 C 93 % 6.54 C
79 06-09-2019 06:30:00 7.6 C 93 % 6.54 C
80 06-09-2019 06:35:00 7.5 C 93 % 6.44 C
81 06-09-2019 06:40:00 7.5 C 93 % 6.44 C
82 06-09-2019 06:45:00 7.4 C 93 % 6.34 C
83 06-09-2019 06:50:00 7.4 C 93 % 6.34 C
84 06-09-2019 06:55:00 7.4 C 93 % 6.34 C
85 06-09-2019 07:00:00 7.3 C 93 % 6.25 C
86 06-09-2019 07:05:00 7.3 C 93 % 6.25 C
87 06-09-2019 07:10:00 7.2 C 93 % 6.15 C
88 06-09-2019 07:15:00 7.3 C 93 % 6.25 C
89 06-09-2019 07:20:00 7.3 C 94 % 6.4 C
90 06-09-2019 07:25:00 7.3 C 94 % 6.4 C
91 06-09-2019 07:30:00 7.3 C 94 % 6.4 C
92 06-09-2019 07:35:00 7.3 C 94 % 6.4 C
93 06-09-2019 07:40:00 7.3 C 94 % 6.4 C
94 06-09-2019 07:45:00 7.3 C 94 % 6.4 C
95 06-09-2019 07:50:00 7.4 C 94 % 6.5 C
96 06-09-2019 07:55:00 7.5 C 94 % 6.6 C
97 06-09-2019 08:00:00 7.6 C 94 % 6.7 C
98 06-09-2019 08:05:00 7.7 C 95 % 6.95 C
99 06-09-2019 08:10:00 7.7 C 95 % 6.95 C
100 06-09-2019 08:15:00 7.8 C 95 % 7.05 C
Sensor: Nr:Datum:Temp:Feuchte:Taupunkt:
Aussen-T/F 101 06-09-2019 08:20:00 7.8 C 95 % 7.05 C
102 06-09-2019 08:25:00 7.9 C 95 % 7.15 C
103 06-09-2019 08:30:00 7.9 C 95 % 7.15 C
104 06-09-2019 08:35:00 7.9 C 95 % 7.15 C
105 06-09-2019 08:40:00 7.9 C 95 % 7.15 C
106 06-09-2019 08:45:00 7.9 C 95 % 7.15 C
107 06-09-2019 08:50:00 8 C 95 % 7.25 C
108 06-09-2019 08:55:00 8.1 C 95 % 7.35 C
109 06-09-2019 09:00:00 8.2 C 95 % 7.45 C
110 06-09-2019 09:05:00 8.3 C 95 % 7.55 C
111 06-09-2019 09:10:00 8.4 C 95 % 7.65 C
112 06-09-2019 09:15:00 8.5 C 95 % 7.75 C
113 06-09-2019 09:20:00 8.6 C 95 % 7.85 C
114 06-09-2019 09:25:00 8.7 C 95 % 7.94 C
115 06-09-2019 09:30:00 8.8 C 95 % 8.04 C
116 06-09-2019 09:35:00 8.9 C 95 % 8.14 C
117 06-09-2019 09:40:00 9 C 95 % 8.24 C
118 06-09-2019 09:45:00 9.1 C 95 % 8.34 C
119 06-09-2019 09:50:00 9.2 C 96 % 8.6 C
120 06-09-2019 09:55:00 9.3 C 95 % 8.54 C
121 06-09-2019 10:00:00 9.4 C 95 % 8.64 C
122 06-09-2019 10:05:00 9.5 C 96 % 8.89 C
123 06-09-2019 10:10:00 9.7 C 95 % 8.94 C
124 06-09-2019 10:15:00 9.8 C 95 % 9.04 C
125 06-09-2019 10:20:00 9.9 C 96 % 9.29 C
Sensor: Nr:Datum:Temp:Feuchte:Taupunkt:
Aussen-T/F 126 06-09-2019 10:25:00 10.1 C 95 % 9.34 C
127 06-09-2019 10:30:00 10.2 C 95 % 9.44 C
128 06-09-2019 10:35:00 10.3 C 95 % 9.54 C
129 06-09-2019 10:40:00 10.5 C 95 % 9.73 C
130 06-09-2019 10:45:00 10.7 C 95 % 9.93 C
131 06-09-2019 10:50:00 10.9 C 94 % 9.97 C
132 06-09-2019 10:55:00 11.1 C 94 % 10.17 C
133 06-09-2019 11:00:00 11.3 C 93 % 10.21 C
134 06-09-2019 11:05:00 11.4 C 92 % 10.15 C
135 06-09-2019 11:10:00 11.7 C 91 % 10.28 C
136 06-09-2019 11:15:00 11.9 C 90 % 10.31 C
137 06-09-2019 11:20:00 12.1 C 88 % 10.17 C
138 06-09-2019 11:25:00 12.3 C 85 % 9.85 C
139 06-09-2019 11:30:00 12.6 C 81 % 9.43 C
140 06-09-2019 11:35:00 13.1 C 79 % 9.54 C
141 06-09-2019 11:40:00 13.3 C 77 % 9.36 C
142 06-09-2019 11:45:00 13.4 C 75 % 9.06 C
143 06-09-2019 11:50:00 13.7 C 74 % 9.15 C
144 06-09-2019 11:55:00 13.9 C 73 % 9.15 C
145 06-09-2019 12:00:00 14.1 C 72 % 9.13 C
146 06-09-2019 12:05:00 14.3 C 71 % 9.12 C
147 06-09-2019 12:10:00 14.4 C 67 % 8.36 C
148 06-09-2019 12:15:00 14.7 C 65 % 8.2 C
149 06-09-2019 12:20:00 14.9 C 63 % 7.93 C
150 06-09-2019 12:25:00 15.1 C 62 % 7.88 C
Sensor: Nr:Datum:Temp:Feuchte:Taupunkt:
Aussen-T/F 151 06-09-2019 12:30:00 15.1 C 62 % 7.88 C
152 06-09-2019 12:35:00 15.3 C 63 % 8.31 C
153 06-09-2019 12:40:00 15.4 C 62 % 8.16 C
154 06-09-2019 12:45:00 15.6 C 62 % 8.35 C
155 06-09-2019 12:50:00 15.7 C 62 % 8.45 C
156 06-09-2019 12:55:00 15.8 C 62 % 8.54 C
157 06-09-2019 13:00:00 15.9 C 63 % 8.87 C
158 06-09-2019 13:05:00 15.9 C 64 % 9.11 C
159 06-09-2019 13:10:00 15.9 C 63 % 8.87 C
160 06-09-2019 13:15:00 16 C 61 % 8.49 C
161 06-09-2019 13:20:00 16.2 C 60 % 8.43 C
162 06-09-2019 13:25:00 16.4 C 58 % 8.12 C
163 06-09-2019 13:30:00 16.6 C 57 % 8.06 C
164 06-09-2019 13:35:00 16.8 C 55 % 7.72 C
165 06-09-2019 13:40:00 16.9 C 55 % 7.81 C
166 06-09-2019 13:45:00 17.1 C 53 % 7.45 C
167 06-09-2019 13:50:00 17.2 C 52 % 7.27 C
168 06-09-2019 13:55:00 17.3 C 54 % 7.91 C
169 06-09-2019 14:00:00 17.4 C 51 % 7.17 C
170 06-09-2019 14:05:00 17.7 C 52 % 7.73 C
171 06-09-2019 14:10:00 17.9 C 50 % 7.34 C
172 06-09-2019 14:15:00 18.1 C 50 % 7.52 C
173 06-09-2019 14:20:00 18.2 C 50 % 7.62 C
174 06-09-2019 14:25:00 18.3 C 49 % 7.41 C
175 06-09-2019 14:30:00 18.4 C 50 % 7.8 C
Sensor: Nr:Datum:Temp:Feuchte:Taupunkt:
Aussen-T/F 176 06-09-2019 14:35:00 18.4 C 49 % 7.5 C
177 06-09-2019 14:40:00 18.6 C 48 % 7.39 C
178 06-09-2019 14:45:00 18.8 C 49 % 7.87 C
179 06-09-2019 14:50:00 18.9 C 49 % 7.96 C
180 06-09-2019 14:55:00 18.9 C 48 % 7.66 C
181 06-09-2019 15:00:00 19.1 C 47 % 7.53 C
182 06-09-2019 15:05:00 19.1 C 47 % 7.53 C
183 06-09-2019 15:10:00 19.2 C 47 % 7.63 C
184 06-09-2019 15:15:00 19.3 C 46 % 7.4 C
185 06-09-2019 15:20:00 19.3 C 46 % 7.4 C
186 06-09-2019 15:25:00 19.5 C 45 % 7.26 C
187 06-09-2019 15:30:00 19.6 C 44 % 7.03 C
188 06-09-2019 15:35:00 19.7 C 44 % 7.12 C
189 06-09-2019 15:40:00 19.7 C 44 % 7.12 C
190 06-09-2019 15:45:00 19.7 C 43 % 6.78 C
191 06-09-2019 15:50:00 19.7 C 43 % 6.78 C
192 06-09-2019 15:55:00 19.8 C 43 % 6.87 C
193 06-09-2019 16:00:00 19.8 C 42 % 6.53 C
194 06-09-2019 16:05:00 19.9 C 41 % 6.27 C
195 06-09-2019 16:10:00 20 C 40 % 6 C
196 06-09-2019 16:15:00 20.1 C 42 % 6.8 C
197 06-09-2019 16:20:00 20.4 C 41 % 6.72 C
198 06-09-2019 16:25:00 20.6 C 40 % 6.54 C
199 06-09-2019 16:30:00 20.7 C 39 % 6.26 C
200 06-09-2019 16:35:00 20.8 C 40 % 6.72 C
Sensor: Nr:Datum:Temp:Feuchte:Taupunkt:
Aussen-T/F 201 06-09-2019 16:40:00 21.1 C 40 % 6.99 C
202 06-09-2019 16:45:00 21.4 C 39 % 6.89 C
203 06-09-2019 16:50:00 21.7 C 38 % 6.77 C
204 06-09-2019 16:55:00 21.9 C 36 % 6.17 C
205 06-09-2019 17:00:00 22.1 C 37 % 6.74 C
206 06-09-2019 17:05:00 22.1 C 37 % 6.74 C
207 06-09-2019 17:10:00 22.2 C 38 % 7.22 C
208 06-09-2019 17:15:00 22.4 C 36 % 6.61 C
209 06-09-2019 17:20:00 22.4 C 37 % 7.01 C
210 06-09-2019 17:25:00 22.3 C 37 % 6.92 C
211 06-09-2019 17:30:00 22.6 C 38 % 7.57 C
212 06-09-2019 17:35:00 22.6 C 36 % 6.78 C
213 06-09-2019 17:40:00 22.5 C 37 % 7.1 C
214 06-09-2019 17:45:00 22.4 C 38 % 7.4 C
215 06-09-2019 17:50:00 22.4 C 38 % 7.4 C
216 06-09-2019 17:55:00 22.4 C 38 % 7.4 C
217 06-09-2019 18:00:00 22.3 C 38 % 7.31 C
218 06-09-2019 18:05:00 22.3 C 39 % 7.69 C
219 06-09-2019 18:10:00 22.3 C 37 % 6.92 C
220 06-09-2019 18:15:00 22 C 38 % 7.04 C
221 06-09-2019 18:20:00 21.8 C 39 % 7.24 C
222 06-09-2019 18:25:00 22.1 C 43 % 8.95 C
223 06-09-2019 18:30:00 22.4 C 39 % 7.78 C
224 06-09-2019 18:35:00 22.6 C 42 % 9.05 C
225 06-09-2019 18:40:00 22.7 C 37 % 7.27 C
Sensor: Nr:Datum:Temp:Feuchte:Taupunkt:
Aussen-T/F 226 06-09-2019 18:45:00 22.3 C 38 % 7.31 C
227 06-09-2019 18:50:00 22.1 C 40 % 7.88 C
228 06-09-2019 18:55:00 22.1 C 42 % 8.6 C
229 06-09-2019 19:00:00 21.9 C 44 % 9.1 C
230 06-09-2019 19:05:00 21.7 C 44 % 8.92 C
231 06-09-2019 19:10:00 21.2 C 45 % 8.8 C
232 06-09-2019 19:15:00 20.7 C 47 % 8.99 C
233 06-09-2019 19:20:00 20.1 C 46 % 8.13 C
234 06-09-2019 19:25:00 19.6 C 48 % 8.3 C
235 06-09-2019 19:30:00 19 C 49 % 8.05 C
236 06-09-2019 19:35:00 18.6 C 49 % 7.69 C
237 06-09-2019 19:40:00 18.1 C 51 % 7.81 C
238 06-09-2019 19:45:00 17.7 C 51 % 7.45 C
239 06-09-2019 19:50:00 17.3 C 53 % 7.64 C
240 06-09-2019 19:55:00 17.1 C 53 % 7.45 C
241 06-09-2019 20:00:00 16.8 C 54 % 7.45 C
242 06-09-2019 20:05:00 16.6 C 54 % 7.26 C
243 06-09-2019 20:10:00 16.4 C 54 % 7.08 C
244 06-09-2019 20:15:00 16.3 C 55 % 7.25 C
245 06-09-2019 20:20:00 16.2 C 56 % 7.42 C
246 06-09-2019 20:25:00 16.1 C 57 % 7.59 C
247 06-09-2019 20:30:00 16 C 58 % 7.75 C
248 06-09-2019 20:35:00 15.9 C 59 % 7.91 C
249 06-09-2019 20:40:00 15.8 C 58 % 7.56 C
250 06-09-2019 20:45:00 15.6 C 57 % 7.12 C
Sensor: Nr:Datum:Temp:Feuchte:Taupunkt:
Aussen-T/F 251 06-09-2019 20:50:00 15.4 C 57 % 6.93 C
252 06-09-2019 20:55:00 15.4 C 58 % 7.19 C
253 06-09-2019 21:00:00 15.3 C 58 % 7.09 C
254 06-09-2019 21:05:00 15.2 C 58 % 7 C
255 06-09-2019 21:10:00 15.1 C 59 % 7.16 C
256 06-09-2019 21:15:00 14.9 C 59 % 6.97 C
257 06-09-2019 21:20:00 14.8 C 59 % 6.87 C
258 06-09-2019 21:25:00 14.7 C 59 % 6.78 C
259 06-09-2019 21:30:00 14.6 C 60 % 6.93 C
260 06-09-2019 21:35:00 14.5 C 61 % 7.08 C
261 06-09-2019 21:40:00 14.4 C 62 % 7.22 C
262 06-09-2019 21:45:00 14.3 C 63 % 7.36 C
263 06-09-2019 21:50:00 14.1 C 64 % 7.4 C
264 06-09-2019 21:55:00 13.9 C 65 % 7.44 C
265 06-09-2019 22:00:00 13.7 C 66 % 7.47 C
266 06-09-2019 22:05:00 13.4 C 67 % 7.4 C
267 06-09-2019 22:10:00 13.2 C 67 % 7.21 C
268 06-09-2019 22:15:00 12.9 C 68 % 7.14 C
269 06-09-2019 22:20:00 12.8 C 68 % 7.05 C
270 06-09-2019 22:25:00 12.6 C 68 % 6.86 C
271 06-09-2019 22:30:00 12.5 C 69 % 6.97 C
272 06-09-2019 22:35:00 12.4 C 69 % 6.88 C
273 06-09-2019 22:40:00 12.3 C 70 % 6.99 C
274 06-09-2019 22:45:00 12.3 C 70 % 6.99 C
275 06-09-2019 22:50:00 12.3 C 70 % 6.99 C
Sensor: Nr:Datum:Temp:Feuchte:Taupunkt:
Aussen-T/F 276 06-09-2019 22:55:00 12.5 C 70 % 7.18 C
277 06-09-2019 23:00:00 12.7 C 71 % 7.58 C
278 06-09-2019 23:05:00 12.7 C 70 % 7.38 C
279 06-09-2019 23:10:00 12.8 C 70 % 7.47 C
280 06-09-2019 23:15:00 12.8 C 71 % 7.68 C
281 06-09-2019 23:20:00 12.8 C 71 % 7.68 C
282 06-09-2019 23:25:00 12.8 C 71 % 7.68 C
283 06-09-2019 23:30:00 12.7 C 72 % 7.79 C
284 06-09-2019 23:35:00 12.7 C 72 % 7.79 C
285 06-09-2019 23:40:00 12.6 C 72 % 7.69 C
286 06-09-2019 23:45:00 12.6 C 72 % 7.69 C
287 06-09-2019 23:50:00 12.6 C 72 % 7.69 C
288 06-09-2019 23:55:00 12.5 C 73 % 7.8 C
289 07-09-2019 00:00:00 12.4 C 74 % 7.9 C
290 07-09-2019 00:05:00 12.3 C 73 % 7.61 C
291 07-09-2019 00:10:00 12.3 C 73 % 7.61 C
292 07-09-2019 00:15:00 12.2 C 74 % 7.71 C
293 07-09-2019 00:20:00 12.2 C 73 % 7.51 C
294 07-09-2019 00:25:00 12.2 C 74 % 7.71 C
295 07-09-2019 00:30:00 12.2 C 74 % 7.71 C
296 07-09-2019 00:35:00 12.2 C 74 % 7.71 C
297 07-09-2019 00:40:00 12.2 C 75 % 7.91 C
298 07-09-2019 00:45:00 12.2 C 74 % 7.71 C
299 07-09-2019 00:50:00 12.3 C 74 % 7.8 C
300 07-09-2019 00:55:00 12.4 C 73 % 7.7 C
Sensor: Nr:Datum:Temp:Feuchte:Taupunkt:
Aussen-T/F 301 07-09-2019 01:00:00 12.6 C 73 % 7.89 C
302 07-09-2019 01:05:00 12.6 C 73 % 7.89 C
303 07-09-2019 01:10:00 12.6 C 73 % 7.89 C
304 07-09-2019 01:15:00 12.6 C 73 % 7.89 C
305 07-09-2019 01:20:00 12.6 C 73 % 7.89 C
306 07-09-2019 01:25:00 12.5 C 74 % 8 C
307 07-09-2019 01:30:00 12.4 C 74 % 7.9 C
308 07-09-2019 01:35:00 12.3 C 74 % 7.8 C
309 07-09-2019 01:40:00 12.3 C 74 % 7.8 C
310 07-09-2019 01:45:00 12.2 C 74 % 7.71 C
311 07-09-2019 01:50:00 12.2 C 74 % 7.71 C
312 07-09-2019 01:55:00 12.1 C 75 % 7.81 C
313 07-09-2019 02:00:00 12.1 C 75 % 7.81 C
314 07-09-2019 02:05:00 12.1 C 75 % 7.81 C
315 07-09-2019 02:10:00 12.1 C 75 % 7.81 C
316 07-09-2019 02:15:00 12.2 C 75 % 7.91 C
317 07-09-2019 02:20:00 12.2 C 75 % 7.91 C
318 07-09-2019 02:25:00 12.2 C 75 % 7.91 C
319 07-09-2019 02:30:00 12.2 C 75 % 7.91 C
320 07-09-2019 02:35:00 12.2 C 75 % 7.91 C
321 07-09-2019 02:40:00 12.2 C 75 % 7.91 C
322 07-09-2019 02:45:00 12.2 C 75 % 7.91 C
323 07-09-2019 02:50:00 12.3 C 75 % 8 C
324 07-09-2019 02:55:00 12.3 C 75 % 8 C
325 07-09-2019 03:00:00 12.3 C 75 % 8 C
Sensor: Nr:Datum:Temp:Feuchte:Taupunkt:
Aussen-T/F 326 07-09-2019 03:05:00 12.3 C 75 % 8 C
327 07-09-2019 03:10:00 12.3 C 75 % 8 C
328 07-09-2019 03:15:00 12.2 C 75 % 7.91 C
329 07-09-2019 03:20:00 12.3 C 75 % 8 C
330 07-09-2019 03:25:00 12.4 C 75 % 8.1 C
331 07-09-2019 03:30:00 12.4 C 75 % 8.1 C
332 07-09-2019 03:35:00 12.4 C 75 % 8.1 C
333 07-09-2019 03:40:00 12.4 C 74 % 7.9 C
334 07-09-2019 03:45:00 12.4 C 75 % 8.1 C
335 07-09-2019 03:50:00 12.5 C 74 % 8 C
336 07-09-2019 03:55:00 12.6 C 74 % 8.09 C
337 07-09-2019 04:00:00 12.7 C 74 % 8.19 C
338 07-09-2019 04:05:00 12.7 C 75 % 8.39 C
339 07-09-2019 04:10:00 12.7 C 74 % 8.19 C
340 07-09-2019 04:15:00 12.7 C 75 % 8.39 C
341 07-09-2019 04:20:00 12.6 C 75 % 8.29 C
342 07-09-2019 04:25:00 12.6 C 75 % 8.29 C
343 07-09-2019 04:30:00 12.6 C 74 % 8.09 C
344 07-09-2019 04:35:00 12.7 C 74 % 8.19 C
345 07-09-2019 04:40:00 12.8 C 74 % 8.29 C
346 07-09-2019 04:45:00 12.8 C 74 % 8.29 C
347 07-09-2019 04:50:00 12.7 C 73 % 7.99 C
348 07-09-2019 04:55:00 12.7 C 74 % 8.19 C
349 07-09-2019 05:00:00 12.7 C 74 % 8.19 C
350 07-09-2019 05:05:00 12.8 C 73 % 8.09 C
Sensor: Nr:Datum:Temp:Feuchte:Taupunkt:
Aussen-T/F 351 07-09-2019 05:10:00 12.8 C 74 % 8.29 C
352 07-09-2019 05:15:00 12.8 C 74 % 8.29 C
353 07-09-2019 05:20:00 12.7 C 74 % 8.19 C
354 07-09-2019 05:25:00 12.7 C 74 % 8.19 C
355 07-09-2019 05:30:00 12.7 C 75 % 8.39 C
356 07-09-2019 05:35:00 12.6 C 75 % 8.29 C
357 07-09-2019 05:40:00 12.6 C 76 % 8.49 C
358 07-09-2019 05:45:00 12.5 C 76 % 8.39 C
359 07-09-2019 05:50:00 12.4 C 75 % 8.1 C
360 07-09-2019 05:55:00 12.4 C 75 % 8.1 C
361 07-09-2019 06:00:00 12.4 C 76 % 8.29 C
362 07-09-2019 06:05:00 12.4 C 76 % 8.29 C
363 07-09-2019 06:10:00 12.3 C 76 % 8.2 C
364 07-09-2019 06:15:00 12.3 C 76 % 8.2 C
365 07-09-2019 06:20:00 12.3 C 76 % 8.2 C
366 07-09-2019 06:25:00 12.3 C 77 % 8.39 C
367 07-09-2019 06:30:00 12.3 C 77 % 8.39 C
368 07-09-2019 06:35:00 12.3 C 78 % 8.58 C
369 07-09-2019 06:40:00 12.3 C 77 % 8.39 C
370 07-09-2019 06:45:00 12.2 C 78 % 8.48 C
371 07-09-2019 06:50:00 12.2 C 78 % 8.48 C
372 07-09-2019 06:55:00 12.2 C 78 % 8.48 C
373 07-09-2019 07:00:00 12.2 C 79 % 8.67 C
374 07-09-2019 07:05:00 12.2 C 80 % 8.86 C
375 07-09-2019 07:10:00 12.2 C 82 % 9.22 C
Sensor: Nr:Datum:Temp:Feuchte:Taupunkt:
Aussen-T/F 376 07-09-2019 07:15:00 12.1 C 83 % 9.3 C
377 07-09-2019 07:20:00 12.1 C 84 % 9.48 C
378 07-09-2019 07:25:00 11.9 C 85 % 9.46 C
379 07-09-2019 07:30:00 11.9 C 86 % 9.64 C
380 07-09-2019 07:35:00 11.8 C 86 % 9.54 C
381 07-09-2019 07:40:00 11.8 C 87 % 9.71 C
382 07-09-2019 07:45:00 11.8 C 88 % 9.88 C
383 07-09-2019 07:50:00 11.8 C 88 % 9.88 C
384 07-09-2019 07:55:00 11.8 C 89 % 10.05 C
385 07-09-2019 08:00:00 11.8 C 89 % 10.05 C
386 07-09-2019 08:05:00 11.7 C 89 % 9.95 C
387 07-09-2019 08:10:00 11.7 C 89 % 9.95 C
388 07-09-2019 08:15:00 11.8 C 90 % 10.21 C
389 07-09-2019 08:20:00 11.8 C 90 % 10.21 C
390 07-09-2019 08:25:00 11.8 C 91 % 10.38 C
391 07-09-2019 08:30:00 11.8 C 91 % 10.38 C
392 07-09-2019 08:35:00 11.8 C 91 % 10.38 C
393 07-09-2019 08:40:00 11.8 C 91 % 10.38 C
394 07-09-2019 08:45:00 11.8 C 91 % 10.38 C
395 07-09-2019 08:50:00 11.8 C 92 % 10.54 C
396 07-09-2019 08:55:00 11.8 C 92 % 10.54 C
397 07-09-2019 09:00:00 11.8 C 92 % 10.54 C
398 07-09-2019 09:05:00 11.8 C 92 % 10.54 C
399 07-09-2019 09:10:00 11.8 C 92 % 10.54 C
400 07-09-2019 09:15:00 11.8 C 93 % 10.71 C
Sensor: Nr:Datum:Temp:Feuchte:Taupunkt:
Aussen-T/F 401 07-09-2019 09:20:00 11.8 C 93 % 10.71 C
402 07-09-2019 09:25:00 11.8 C 93 % 10.71 C
403 07-09-2019 09:30:00 11.8 C 93 % 10.71 C
404 07-09-2019 09:35:00 11.8 C 93 % 10.71 C
405 07-09-2019 09:40:00 11.8 C 93 % 10.71 C
406 07-09-2019 09:45:00 11.8 C 93 % 10.71 C
407 07-09-2019 09:50:00 11.8 C 94 % 10.87 C
408 07-09-2019 09:55:00 11.9 C 94 % 10.97 C
409 07-09-2019 10:00:00 12 C 94 % 11.07 C
410 07-09-2019 10:05:00 12.1 C 94 % 11.16 C
411 07-09-2019 10:10:00 12.1 C 94 % 11.16 C
412 07-09-2019 10:15:00 12.2 C 94 % 11.26 C
413 07-09-2019 10:20:00 12.2 C 94 % 11.26 C
414 07-09-2019 10:25:00 12.2 C 94 % 11.26 C
415 07-09-2019 10:30:00 12.3 C 94 % 11.36 C
416 07-09-2019 10:35:00 12.3 C 94 % 11.36 C
417 07-09-2019 10:40:00 12.3 C 94 % 11.36 C
418 07-09-2019 10:45:00 12.3 C 94 % 11.36 C
419 07-09-2019 10:50:00 12.3 C 94 % 11.36 C
420 07-09-2019 10:55:00 12.4 C 94 % 11.46 C
421 07-09-2019 11:00:00 12.4 C 94 % 11.46 C
422 07-09-2019 11:05:00 12.4 C 94 % 11.46 C
423 07-09-2019 11:10:00 12.6 C 94 % 11.66 C
424 07-09-2019 11:15:00 12.7 C 94 % 11.76 C
425 07-09-2019 11:20:00 12.7 C 94 % 11.76 C
Sensor: Nr:Datum:Temp:Feuchte:Taupunkt:
Aussen-T/F 426 07-09-2019 11:25:00 12.8 C 94 % 11.86 C
427 07-09-2019 11:30:00 12.8 C 93 % 11.7 C
428 07-09-2019 11:35:00 12.9 C 93 % 11.8 C
429 07-09-2019 11:40:00 12.9 C 94 % 11.96 C
430 07-09-2019 11:45:00 13.1 C 94 % 12.16 C
431 07-09-2019 11:50:00 13.2 C 94 % 12.26 C
432 07-09-2019 11:55:00 13.2 C 94 % 12.26 C
433 07-09-2019 12:00:00 13.3 C 94 % 12.36 C
434 07-09-2019 12:05:00 13.3 C 94 % 12.36 C
435 07-09-2019 12:10:00 13.3 C 94 % 12.36 C
436 07-09-2019 12:15:00 13.3 C 93 % 12.19 C
437 07-09-2019 12:20:00 13.3 C 94 % 12.36 C
438 07-09-2019 12:25:00 13.4 C 94 % 12.45 C
439 07-09-2019 12:30:00 13.4 C 93 % 12.29 C
440 07-09-2019 12:35:00 13.5 C 93 % 12.39 C
441 07-09-2019 12:40:00 13.6 C 93 % 12.49 C
442 07-09-2019 12:45:00 13.7 C 94 % 12.75 C
443 07-09-2019 12:50:00 13.7 C 93 % 12.59 C
444 07-09-2019 12:55:00 13.9 C 94 % 12.95 C
445 07-09-2019 13:00:00 14 C 94 % 13.05 C
446 07-09-2019 13:05:00 14.1 C 93 % 12.99 C
447 07-09-2019 13:10:00 14.1 C 93 % 12.99 C
448 07-09-2019 13:15:00 14.1 C 93 % 12.99 C
449 07-09-2019 13:20:00 14.2 C 93 % 13.08 C
450 07-09-2019 13:25:00 14.3 C 93 % 13.18 C
Sensor: Nr:Datum:Temp:Feuchte:Taupunkt:
Aussen-T/F 451 07-09-2019 13:30:00 14.3 C 92 % 13.02 C
452 07-09-2019 13:35:00 14.2 C 92 % 12.92 C
453 07-09-2019 13:40:00 14.2 C 92 % 12.92 C
454 07-09-2019 13:45:00 14.3 C 93 % 13.18 C
455 07-09-2019 13:50:00 14.3 C 92 % 13.02 C
456 07-09-2019 13:55:00 14.2 C 92 % 12.92 C
457 07-09-2019 14:00:00 14.2 C 92 % 12.92 C
458 07-09-2019 14:05:00 14.2 C 92 % 12.92 C
459 07-09-2019 14:10:00 14.2 C 92 % 12.92 C
460 07-09-2019 14:15:00 14.3 C 92 % 13.02 C
461 07-09-2019 14:20:00 14.3 C 92 % 13.02 C
462 07-09-2019 14:25:00 14.4 C 92 % 13.12 C
463 07-09-2019 14:30:00 14.5 C 92 % 13.22 C
464 07-09-2019 14:35:00 14.6 C 92 % 13.32 C
465 07-09-2019 14:40:00 14.6 C 91 % 13.15 C
466 07-09-2019 14:45:00 14.7 C 91 % 13.25 C
467 07-09-2019 14:50:00 14.8 C 91 % 13.35 C
468 07-09-2019 14:55:00 14.8 C 91 % 13.35 C
469 07-09-2019 15:00:00 14.7 C 90 % 13.08 C
470 07-09-2019 15:05:00 14.7 C 91 % 13.25 C
471 07-09-2019 15:10:00 14.8 C 91 % 13.35 C
472 07-09-2019 15:15:00 14.8 C 91 % 13.35 C
473 07-09-2019 15:20:00 14.9 C 91 % 13.44 C
474 07-09-2019 15:25:00 14.9 C 90 % 13.28 C
475 07-09-2019 15:30:00 15 C 90 % 13.37 C
Sensor: Nr:Datum:Temp:Feuchte:Taupunkt:
Aussen-T/F 476 07-09-2019 15:35:00 15 C 90 % 13.37 C
477 07-09-2019 15:40:00 15.1 C 90 % 13.47 C
478 07-09-2019 15:45:00 15.1 C 90 % 13.47 C
479 07-09-2019 15:50:00 15.2 C 90 % 13.57 C
480 07-09-2019 15:55:00 15 C 89 % 13.2 C
481 07-09-2019 16:00:00 15 C 89 % 13.2 C
482 07-09-2019 16:05:00 15.1 C 89 % 13.3 C
483 07-09-2019 16:10:00 15.1 C 88 % 13.13 C
484 07-09-2019 16:15:00 15.2 C 89 % 13.4 C
485 07-09-2019 16:20:00 15.2 C 88 % 13.23 C
486 07-09-2019 16:25:00 15.2 C 89 % 13.4 C
487 07-09-2019 16:30:00 15.3 C 91 % 13.84 C
488 07-09-2019 16:35:00 15.4 C 91 % 13.94 C
489 07-09-2019 16:40:00 15.5 C 91 % 14.04 C
490 07-09-2019 16:45:00 15.4 C 89 % 13.6 C
491 07-09-2019 16:50:00 15.3 C 89 % 13.5 C
492 07-09-2019 16:55:00 15.3 C 89 % 13.5 C
493 07-09-2019 17:00:00 15.4 C 90 % 13.77 C
494 07-09-2019 17:05:00 15.6 C 91 % 14.14 C
495 07-09-2019 17:10:00 15.7 C 91 % 14.24 C
496 07-09-2019 17:15:00 15.8 C 91 % 14.33 C
497 07-09-2019 17:20:00 15.8 C 89 % 13.99 C
498 07-09-2019 17:25:00 15.7 C 89 % 13.89 C
499 07-09-2019 17:30:00 15.3 C 87 % 13.15 C
500 07-09-2019 17:35:00 15.1 C 88 % 13.13 C
Sensor: Nr:Datum:Temp:Feuchte:Taupunkt:
Aussen-T/F 501 07-09-2019 17:40:00 14.9 C 88 % 12.93 C
502 07-09-2019 17:45:00 14.8 C 88 % 12.83 C
503 07-09-2019 17:50:00 14.8 C 89 % 13.01 C
504 07-09-2019 17:55:00 14.8 C 90 % 13.18 C
505 07-09-2019 18:00:00 14.7 C 90 % 13.08 C
506 07-09-2019 18:05:00 14.6 C 90 % 12.98 C
507 07-09-2019 18:10:00 14.4 C 90 % 12.78 C
508 07-09-2019 18:15:00 14.3 C 90 % 12.68 C
509 07-09-2019 18:20:00 14.3 C 91 % 12.85 C
510 07-09-2019 18:25:00 14.3 C 91 % 12.85 C
511 07-09-2019 18:30:00 14.3 C 91 % 12.85 C
512 07-09-2019 18:35:00 14.2 C 91 % 12.75 C
513 07-09-2019 18:40:00 14.2 C 91 % 12.75 C
514 07-09-2019 18:45:00 14.1 C 91 % 12.65 C
515 07-09-2019 18:50:00 14.1 C 91 % 12.65 C
516 07-09-2019 18:55:00 14 C 92 % 12.72 C
517 07-09-2019 19:00:00 13.9 C 92 % 12.62 C
518 07-09-2019 19:05:00 13.8 C 91 % 12.36 C
519 07-09-2019 19:10:00 13.7 C 91 % 12.26 C
520 07-09-2019 19:15:00 13.6 C 91 % 12.16 C
521 07-09-2019 19:20:00 13.5 C 91 % 12.06 C
522 07-09-2019 19:25:00 13.3 C 91 % 11.86 C
523 07-09-2019 19:30:00 13.2 C 91 % 11.76 C
524 07-09-2019 19:35:00 13.2 C 91 % 11.76 C
525 07-09-2019 19:40:00 13.1 C 92 % 11.83 C
Sensor: Nr:Datum:Temp:Feuchte:Taupunkt:
Aussen-T/F 526 07-09-2019 19:45:00 13 C 92 % 11.73 C
527 07-09-2019 19:50:00 12.9 C 92 % 11.63 C
528 07-09-2019 19:55:00 12.9 C 92 % 11.63 C
529 07-09-2019 20:00:00 12.8 C 93 % 11.7 C
530 07-09-2019 20:05:00 12.8 C 93 % 11.7 C
531 07-09-2019 20:10:00 12.8 C 93 % 11.7 C
532 07-09-2019 20:15:00 12.8 C 93 % 11.7 C
533 07-09-2019 20:20:00 12.7 C 93 % 11.6 C
534 07-09-2019 20:25:00 12.7 C 93 % 11.6 C
535 07-09-2019 20:30:00 12.6 C 93 % 11.5 C
536 07-09-2019 20:35:00 12.6 C 93 % 11.5 C
537 07-09-2019 20:40:00 12.6 C 93 % 11.5 C
538 07-09-2019 20:45:00 12.5 C 93 % 11.4 C
539 07-09-2019 20:50:00 12.4 C 93 % 11.3 C
540 07-09-2019 20:55:00 12.4 C 93 % 11.3 C
541 07-09-2019 21:00:00 12.3 C 93 % 11.2 C
542 07-09-2019 21:05:00 12.3 C 93 % 11.2 C
543 07-09-2019 21:10:00 12.2 C 93 % 11.1 C
544 07-09-2019 21:15:00 12.1 C 93 % 11 C
545 07-09-2019 21:20:00 12.1 C 93 % 11 C
546 07-09-2019 21:25:00 12 C 93 % 10.9 C
547 07-09-2019 21:30:00 11.9 C 93 % 10.81 C
548 07-09-2019 21:35:00 11.9 C 93 % 10.81 C
549 07-09-2019 21:40:00 11.9 C 94 % 10.97 C
550 07-09-2019 21:45:00 11.8 C 94 % 10.87 C
Sensor: Nr:Datum:Temp:Feuchte:Taupunkt:
Aussen-T/F 551 07-09-2019 21:50:00 11.8 C 94 % 10.87 C
552 07-09-2019 21:55:00 11.8 C 94 % 10.87 C
553 07-09-2019 22:00:00 11.8 C 94 % 10.87 C
554 07-09-2019 22:05:00 11.8 C 94 % 10.87 C
555 07-09-2019 22:10:00 11.8 C 94 % 10.87 C
556 07-09-2019 22:15:00 11.8 C 94 % 10.87 C
557 07-09-2019 22:20:00 11.8 C 94 % 10.87 C
558 07-09-2019 22:25:00 11.8 C 94 % 10.87 C
559 07-09-2019 22:30:00 11.8 C 94 % 10.87 C
560 07-09-2019 22:35:00 11.8 C 95 % 11.03 C
561 07-09-2019 22:40:00 11.8 C 95 % 11.03 C
562 07-09-2019 22:45:00 11.8 C 95 % 11.03 C
563 07-09-2019 22:50:00 11.8 C 95 % 11.03 C
564 07-09-2019 22:55:00 11.8 C 95 % 11.03 C
565 07-09-2019 23:00:00 11.8 C 95 % 11.03 C
566 07-09-2019 23:05:00 11.8 C 95 % 11.03 C
567 07-09-2019 23:10:00 11.8 C 95 % 11.03 C
568 07-09-2019 23:15:00 11.7 C 95 % 10.93 C
569 07-09-2019 23:20:00 11.7 C 95 % 10.93 C
570 07-09-2019 23:25:00 11.7 C 95 % 10.93 C
571 07-09-2019 23:30:00 11.7 C 95 % 10.93 C
572 07-09-2019 23:35:00 11.7 C 95 % 10.93 C
573 07-09-2019 23:40:00 11.7 C 95 % 10.93 C
574 07-09-2019 23:45:00 11.7 C 95 % 10.93 C
575 07-09-2019 23:50:00 11.7 C 95 % 10.93 C
Sensor: Nr:Datum:Temp:Feuchte:Taupunkt:
Aussen-T/F 576 07-09-2019 23:55:00 11.7 C 95 % 10.93 C

Legende:
   Min
   Max


Maximal/Minimal-Werte vom 06.09.2019 - 07.09.2019

Sensor Min Max Avg
Temp
(Aussen-T/F)
7.2 °C
06-09-2019  07:10:00
22.7 °C
06-09-2019  18:40:00
13.25 °C
Feuchte
(Aussen-T/F)
36 %
06-09-2019  16:55:00
96 %
06-09-2019  09:50:00
79.06 %
Taupunkt
(Aussen-T/F)
6 C
06-09-2019  16:10:00
14.33 C
07-09-2019  17:15:00
9.21 C

Die Daten stammen von einer Davis Vantage Pro 2 Wetter-Station und werden unter Linux mit der Software wview2wettercgi und aufbereitet. Alle Angaben erfolgen ohne Gewähr für ihre Vollständigkeit oder Richtigkeit.
Kontakt: Rainer Krienke krienke@uni-koblenz.de . Meine Webseiten an der Uni Koblenz oder privat.
Version: $Revision: 0.78 $